createdAt,value
2018-05-04T00:00:40.830Z,1011.38
2018-05-04T00:06:30.070Z,1011.5
2018-05-04T00:07:18.898Z,1011.47
2018-05-04T00:08:07.157Z,1011.48
2018-05-04T00:08:56.107Z,1011.49
2018-05-04T00:09:44.179Z,1011.47
2018-05-04T00:10:32.747Z,1011.45
2018-05-04T00:11:21.395Z,1011.43
2018-05-04T00:12:09.384Z,1011.43
2018-05-04T00:12:58.070Z,1011.44
2018-05-04T00:13:44.671Z,1011.47
2018-05-04T00:14:33.537Z,1011.46
2018-05-04T00:15:16.560Z,1011.43
2018-05-04T00:15:56.992Z,1011.45
2018-05-04T00:16:37.345Z,1011.42
2018-05-04T00:17:17.759Z,1011.46
2018-05-04T00:17:58.179Z,1011.41
2018-05-04T00:18:38.636Z,1011.45
2018-05-04T00:19:18.998Z,1011.43
2018-05-04T00:19:59.442Z,1011.42
2018-05-04T00:20:39.834Z,1011.41
2018-05-04T00:21:20.237Z,1011.47
2018-05-04T00:22:00.734Z,1011.39
2018-05-04T00:22:41.007Z,1011.36
2018-05-04T00:23:21.422Z,1011.41
2018-05-04T00:24:01.863Z,1011.45
2018-05-04T00:24:42.185Z,1011.42
2018-05-04T00:25:22.595Z,1011.43
2018-05-04T00:26:03.010Z,1011.45
2018-05-04T00:26:43.386Z,1011.45
2018-05-04T00:27:23.774Z,1011.46
2018-05-04T00:28:04.177Z,1011.48
2018-05-04T00:28:44.678Z,1011.44
2018-05-04T00:29:25.043Z,1011.49
2018-05-04T00:30:05.428Z,1011.48
2018-05-04T00:30:45.879Z,1011.5
2018-05-04T00:31:26.251Z,1011.5
2018-05-04T00:32:06.631Z,1011.51
2018-05-04T00:32:47.048Z,1011.51
2018-05-04T00:33:27.463Z,1011.54
2018-05-04T00:34:07.870Z,1011.55
2018-05-04T00:34:48.260Z,1011.52
2018-05-04T00:35:28.641Z,1011.51
2018-05-04T00:36:09.067Z,1011.54
2018-05-04T00:36:49.440Z,1011.56
2018-05-04T00:37:29.856Z,1011.54
2018-05-04T00:38:10.218Z,1011.53
2018-05-04T00:38:50.654Z,1011.54
2018-05-04T00:41:23.865Z,1011.46
2018-05-04T00:42:12.725Z,1011.45
2018-05-04T00:43:01.078Z,1011.44
2018-05-04T00:43:49.793Z,1011.45
2018-05-04T00:44:37.948Z,1011.44
2018-05-04T00:45:26.710Z,1011.44
2018-05-04T00:46:14.963Z,1011.44
2018-05-04T00:47:02.859Z,1011.41
2018-05-04T00:49:00.731Z,1011.45
2018-05-04T00:49:49.368Z,1011.46
2018-05-04T00:50:37.439Z,1011.5
2018-05-04T00:51:26.264Z,1011.48
2018-05-04T00:52:15.168Z,1011.48
2018-05-04T00:53:03.312Z,1011.51
2018-05-04T00:53:52.493Z,1011.49
2018-05-04T00:54:40.749Z,1011.53
2018-05-04T00:55:29.275Z,1011.54
2018-05-04T00:56:17.769Z,1011.53
2018-05-04T00:57:06.295Z,1011.57
2018-05-04T00:57:55.163Z,1011.59
2018-05-04T00:58:43.622Z,1011.61
2018-05-04T00:59:32.121Z,1011.56
2018-05-04T01:00:21.163Z,1011.59
2018-05-04T01:01:09.764Z,1011.58
2018-05-04T01:01:58.481Z,1011.59
2018-05-04T01:02:47.572Z,1011.57
2018-05-04T01:03:35.971Z,1011.54
2018-05-04T01:04:24.405Z,1011.56
2018-05-04T01:05:12.841Z,1011.59
2018-05-04T01:06:02.180Z,1011.61
2018-05-04T01:06:50.739Z,1011.62
2018-05-04T01:07:39.181Z,1011.64
2018-05-04T01:08:27.828Z,1011.63
2018-05-04T01:09:16.317Z,1011.66
2018-05-04T01:10:05.245Z,1011.68
2018-05-04T01:10:53.385Z,1011.68
2018-05-04T01:11:42.585Z,1011.72
2018-05-04T01:12:30.752Z,1011.72
2018-05-04T01:13:19.336Z,1011.74
2018-05-04T01:14:07.825Z,1011.77
2018-05-04T01:14:56.390Z,1011.79
2018-05-04T01:15:45.074Z,1011.76
2018-05-04T01:16:33.077Z,1011.79
2018-05-04T01:17:21.679Z,1011.78
2018-05-04T01:18:10.231Z,1011.79
2018-05-04T01:18:58.738Z,1011.83
2018-05-04T01:19:47.282Z,1011.79
2018-05-04T01:20:35.962Z,1011.76
2018-05-04T01:21:24.236Z,1011.74
2018-05-04T01:22:13.103Z,1011.77
2018-05-04T01:23:01.410Z,1011.78
2018-05-04T01:23:50.160Z,1011.76
2018-05-04T01:24:38.384Z,1011.74
2018-05-04T01:25:27.518Z,1011.75
2018-05-04T01:26:15.679Z,1011.79
2018-05-04T01:27:04.616Z,1011.79
2018-05-04T01:27:52.108Z,1011.78
2018-05-04T01:28:40.208Z,1011.83
2018-05-04T01:29:28.775Z,1011.84
2018-05-04T01:30:17.314Z,1011.9
2018-05-04T01:31:06.060Z,1011.89
2018-05-04T01:31:54.646Z,1011.91
2018-05-04T01:32:43.132Z,1011.91
2018-05-04T01:33:31.937Z,1011.93
2018-05-04T01:34:20.369Z,1011.92
2018-05-04T01:35:08.883Z,1011.92
2018-05-04T01:35:57.730Z,1011.93
2018-05-04T01:36:46.551Z,1011.93
2018-05-04T01:37:34.637Z,1011.89
2018-05-04T01:38:23.518Z,1011.91
2018-05-04T01:39:12.199Z,1011.91
2018-05-04T01:40:00.701Z,1011.88
2018-05-04T01:40:49.281Z,1011.87
2018-05-04T01:41:38.153Z,1011.86
2018-05-04T01:42:26.447Z,1011.84
2018-05-04T01:43:14.974Z,1011.84
2018-05-04T01:44:03.601Z,1011.84
2018-05-04T01:44:51.963Z,1011.87
2018-05-04T01:45:41.010Z,1011.83
2018-05-04T01:46:29.527Z,1011.89
2018-05-04T01:47:17.733Z,1011.85
2018-05-04T01:48:06.420Z,1011.87
2018-05-04T01:48:54.986Z,1011.88
2018-05-04T01:49:43.591Z,1011.87
2018-05-04T01:50:32.614Z,1011.86
2018-05-04T01:51:20.700Z,1011.87
2018-05-04T01:52:09.350Z,1011.9
2018-05-04T01:52:58.139Z,1011.93
2018-05-04T01:53:46.657Z,1011.92
2018-05-04T01:54:35.584Z,1011.97
2018-05-04T01:55:23.637Z,1011.99
2018-05-04T01:56:12.495Z,1011.96
2018-05-04T01:57:01.268Z,1011.97
2018-05-04T01:57:49.629Z,1011.99
2018-05-04T01:58:37.903Z,1011.92
2018-05-04T01:59:26.451Z,1011.97
2018-05-04T02:00:15.612Z,1011.95
2018-05-04T02:01:04.110Z,1011.94
2018-05-04T02:01:52.125Z,1011.92
2018-05-04T02:02:40.683Z,1011.95
2018-05-04T02:03:29.407Z,1011.94
2018-05-04T02:04:17.896Z,1011.93
2018-05-04T02:06:57.164Z,1011.99
2018-05-04T02:07:45.966Z,1012
2018-05-04T02:08:35.025Z,1012.01
2018-05-04T02:09:23.364Z,1012.03
2018-05-04T02:10:11.495Z,1012.03
2018-05-04T02:11:00.332Z,1012.07
2018-05-04T02:11:48.565Z,1012.01
2018-05-04T02:12:36.901Z,1012.03
2018-05-04T02:13:25.991Z,1012.01
2018-05-04T02:14:14.594Z,1012.04
2018-05-04T02:15:03.613Z,1012
2018-05-04T02:15:51.215Z,1012.02
2018-05-04T02:16:40.427Z,1012.02
2018-05-04T02:17:28.845Z,1012.02
2018-05-04T02:18:17.393Z,1012.02
2018-05-04T02:19:05.974Z,1012.03
2018-05-04T02:19:54.051Z,1012.06
2018-05-04T02:20:42.592Z,1012.05
2018-05-04T02:21:31.200Z,1012.05
2018-05-04T02:22:19.690Z,1012.12
2018-05-04T02:23:08.149Z,1012.07
2018-05-04T02:23:57.163Z,1012.09
2018-05-04T02:24:45.460Z,1012.06
2018-05-04T02:25:33.966Z,1012.08
2018-05-04T02:26:22.569Z,1012.1
2018-05-04T02:27:11.275Z,1012.03
2018-05-04T02:27:59.961Z,1012.04
2018-05-04T02:28:48.089Z,1012.09
2018-05-04T02:29:36.549Z,1012.06
2018-05-04T02:30:25.125Z,1012.09
2018-05-04T02:31:13.853Z,1012.11
2018-05-04T02:32:02.868Z,1012.08
2018-05-04T02:32:51.371Z,1012.07
2018-05-04T02:33:39.684Z,1012.1
2018-05-04T02:34:28.128Z,1012.12
2018-05-04T02:35:16.665Z,1012.1
2018-05-04T02:36:05.132Z,1012.11
2018-05-04T02:36:53.811Z,1012.1
2018-05-04T02:37:42.571Z,1012.08
2018-05-04T02:38:30.704Z,1012.09
2018-05-04T02:39:19.476Z,1012.09
2018-05-04T02:40:07.992Z,1012.1
2018-05-04T02:40:56.440Z,1012.1
2018-05-04T02:41:45.063Z,1012.09
2018-05-04T02:42:33.396Z,1012.1
2018-05-04T02:43:22.162Z,1012.09
2018-05-04T02:44:10.646Z,1012.1
2018-05-04T02:44:59.147Z,1012.13
2018-05-04T02:45:47.835Z,1012.12
2018-05-04T02:46:36.471Z,1012.11
2018-05-04T02:47:24.911Z,1012.11
2018-05-04T02:48:13.607Z,1012.1
2018-05-04T02:49:02.090Z,1012.09
2018-05-04T02:49:51.035Z,1012.09
2018-05-04T02:50:37.968Z,1012.09
2018-05-04T02:51:26.199Z,1012.06
2018-05-04T02:52:14.815Z,1012.04
2018-05-04T02:53:03.453Z,1012.06
2018-05-04T02:53:52.308Z,1012.11
2018-05-04T02:54:40.535Z,1012.05
2018-05-04T02:55:29.251Z,1012.05
2018-05-04T02:56:12.104Z,1012.04
2018-05-04T02:56:52.527Z,1012.04
2018-05-04T02:57:32.983Z,1012.03
2018-05-04T02:58:13.337Z,1012.01
2018-05-04T02:58:53.786Z,1012.01
2018-05-04T02:59:34.136Z,1011.94
2018-05-04T03:00:14.534Z,1011.99
2018-05-04T03:00:54.944Z,1011.94
2018-05-04T03:01:35.383Z,1011.95
2018-05-04T03:02:15.795Z,1011.94
2018-05-04T03:02:56.155Z,1011.94
2018-05-04T03:03:36.556Z,1011.93
2018-05-04T03:04:17.004Z,1011.92
2018-05-04T03:04:57.446Z,1011.92
2018-05-04T03:05:37.841Z,1011.95
2018-05-04T03:06:18.250Z,1011.89
2018-05-04T03:06:58.649Z,1011.88
2018-05-04T03:07:39.021Z,1011.9
2018-05-04T03:08:19.476Z,1011.85
2018-05-04T03:08:59.851Z,1011.92
2018-05-04T03:09:40.248Z,1011.89
2018-05-04T03:10:20.644Z,1011.93
2018-05-04T03:11:01.054Z,1011.88
2018-05-04T03:11:41.497Z,1011.93
2018-05-04T03:12:21.882Z,1011.9
2018-05-04T03:13:02.340Z,1011.9
2018-05-04T03:13:42.786Z,1011.92
2018-05-04T03:14:23.146Z,1011.92
2018-05-04T03:15:03.604Z,1011.92
2018-05-04T03:15:43.977Z,1011.92
2018-05-04T03:16:24.419Z,1011.95
2018-05-04T03:17:04.793Z,1011.94
2018-05-04T03:17:45.249Z,1011.91
2018-05-04T03:18:25.631Z,1011.9
2018-05-04T03:19:06.044Z,1011.86
2018-05-04T03:19:46.398Z,1011.9
2018-05-04T03:20:26.798Z,1011.85
2018-05-04T03:21:07.169Z,1011.85
2018-05-04T03:21:47.570Z,1011.8
2018-05-04T03:22:28.037Z,1011.83
2018-05-04T03:23:08.508Z,1011.82
2018-05-04T03:23:48.872Z,1011.81
2018-05-04T03:24:29.308Z,1011.8
2018-05-04T03:25:09.750Z,1011.8
2018-05-04T03:25:50.116Z,1011.81
2018-05-04T03:26:31.713Z,1011.81
2018-05-04T03:27:12.323Z,1011.83
2018-05-04T03:27:55.580Z,1011.86
2018-05-04T03:28:37.224Z,1011.84
2018-05-04T03:29:18.570Z,1011.87
2018-05-04T03:29:59.284Z,1011.85
2018-05-04T03:30:40.113Z,1011.82
2018-05-04T03:31:21.918Z,1011.83
2018-05-04T03:32:03.199Z,1011.8
2018-05-04T03:32:43.733Z,1011.8
2018-05-04T03:33:24.453Z,1011.74
2018-05-04T03:34:05.587Z,1011.75
2018-05-04T03:34:48.118Z,1011.73
2018-05-04T03:35:30.241Z,1011.7
2018-05-04T03:36:12.483Z,1011.71
2018-05-04T03:36:52.715Z,1011.72
2018-05-04T03:37:33.895Z,1011.67
2018-05-04T03:38:16.397Z,1011.69
2018-05-04T03:38:56.929Z,1011.64
2018-05-04T03:39:37.714Z,1011.66
2018-05-04T03:40:19.563Z,1011.66
2018-05-04T03:41:00.434Z,1011.66
2018-05-04T03:41:41.958Z,1011.66
2018-05-04T03:42:23.274Z,1011.64
2018-05-04T03:43:04.110Z,1011.65
2018-05-04T03:43:46.006Z,1011.63
2018-05-04T03:44:27.077Z,1011.66
2018-05-04T03:45:09.290Z,1011.64
2018-05-04T03:45:50.456Z,1011.7
2018-05-04T03:46:31.432Z,1011.7
2018-05-04T03:47:12.241Z,1011.68
2018-05-04T03:47:52.632Z,1011.71
2018-05-04T03:48:33.638Z,1011.75
2018-05-04T03:49:14.612Z,1011.77
2018-05-04T03:49:56.618Z,1011.78
2018-05-04T03:50:37.092Z,1011.82
2018-05-04T03:51:17.569Z,1011.84
2018-05-04T03:51:58.348Z,1011.81
2018-05-04T03:52:38.785Z,1011.84
2018-05-04T03:53:19.278Z,1011.8
2018-05-04T03:53:59.828Z,1011.84
2018-05-04T03:54:40.153Z,1011.86
2018-05-04T03:55:20.854Z,1011.83
2018-05-04T03:56:02.328Z,1011.84
2018-05-04T03:56:43.242Z,1011.86
2018-05-04T03:57:23.745Z,1011.83
2018-05-04T03:58:04.591Z,1011.84
2018-05-04T03:58:45.050Z,1011.82
2018-05-04T03:59:25.808Z,1011.83
2018-05-04T04:00:06.204Z,1011.85
2018-05-04T04:00:46.590Z,1011.84
2018-05-04T04:01:27.364Z,1011.86
2018-05-04T04:02:07.707Z,1011.82
2018-05-04T04:02:48.550Z,1011.81
2018-05-04T04:03:29.100Z,1011.83
2018-05-04T04:41:21.597Z,1012.01
2018-05-04T04:42:01.963Z,1012.05
2018-05-04T04:42:42.346Z,1012.08
2018-05-04T04:43:22.773Z,1012.12
2018-05-04T04:44:03.153Z,1012.14
2018-05-04T04:44:43.596Z,1012.09
2018-05-04T04:45:23.978Z,1012.13
2018-05-04T04:46:04.379Z,1012.11
2018-05-04T04:46:44.756Z,1012.11
2018-05-04T04:47:25.143Z,1012.15
2018-05-04T04:48:05.534Z,1012.16
2018-05-04T04:48:45.924Z,1012.16
2018-05-04T04:49:26.337Z,1012.16
2018-05-04T04:50:06.722Z,1012.21
2018-05-04T04:54:07.575Z,1012.3
2018-05-04T04:54:47.951Z,1012.29
2018-05-04T04:55:28.337Z,1012.3
2018-05-04T04:56:08.755Z,1012.33
2018-05-04T04:56:49.148Z,1012.34
2018-05-04T05:02:40.506Z,1012.42
2018-05-04T05:03:21.232Z,1012.47
2018-05-04T05:04:01.589Z,1012.5
2018-05-04T05:07:17.839Z,1012.47
2018-05-04T05:07:58.234Z,1012.49
2018-05-04T05:08:38.594Z,1012.5
2018-05-04T05:09:19.111Z,1012.48
2018-05-04T05:09:59.450Z,1012.49
2018-05-04T05:10:39.989Z,1012.48
2018-05-04T05:11:20.433Z,1012.51
2018-05-04T05:12:00.887Z,1012.53
2018-05-04T05:12:41.234Z,1012.52
2018-05-04T05:13:21.659Z,1012.53
2018-05-04T05:14:02.029Z,1012.52
2018-05-04T05:14:42.424Z,1012.56
2018-05-04T05:15:22.832Z,1012.6
2018-05-04T05:16:03.254Z,1012.64
2018-05-04T05:23:13.583Z,1012.74
2018-05-04T05:23:54.022Z,1012.76
2018-05-04T05:24:34.440Z,1012.72
2018-05-04T05:25:14.843Z,1012.77
2018-05-04T05:26:25.174Z,1012.73
2018-05-04T05:27:05.584Z,1012.67
2018-05-04T05:27:46.037Z,1012.7
2018-05-04T05:28:26.434Z,1012.69
2018-05-04T05:29:06.864Z,1012.68
2018-05-04T05:29:47.277Z,1012.69
2018-05-04T05:30:28.008Z,1012.7
2018-05-04T05:31:08.099Z,1012.68
2018-05-04T05:31:48.563Z,1012.69
2018-05-04T05:32:28.927Z,1012.7
2018-05-04T05:33:09.429Z,1012.74
2018-05-04T05:33:49.856Z,1012.74
2018-05-04T05:34:30.253Z,1012.73
2018-05-04T05:35:10.734Z,1012.74
2018-05-04T05:35:51.198Z,1012.79
2018-05-04T05:38:04.149Z,1012.8
2018-05-04T05:46:20.821Z,1012.87
2018-05-04T05:47:01.255Z,1012.86
2018-05-04T05:47:41.983Z,1012.89
2018-05-04T05:48:22.469Z,1012.93
2018-05-04T05:49:03.033Z,1012.94
2018-05-04T05:49:43.441Z,1012.94
2018-05-04T05:50:24.695Z,1012.93
2018-05-04T05:51:05.551Z,1012.98
2018-05-04T05:51:45.589Z,1012.91
2018-05-04T05:52:26.008Z,1012.98
2018-05-04T05:53:06.472Z,1013.01
2018-05-04T05:53:46.868Z,1013.01
2018-05-04T05:54:27.403Z,1013.01
2018-05-04T05:55:08.588Z,1013.01
2018-05-04T05:55:48.466Z,1013.02
2018-05-04T05:56:28.877Z,1012.98
2018-05-04T05:57:09.271Z,1013.01
2018-05-04T05:57:49.788Z,1013.02
2018-05-04T05:58:30.199Z,1013.05
2018-05-04T05:59:10.667Z,1013.04
2018-05-04T05:59:51.294Z,1013.02
2018-05-04T06:00:32.560Z,1013.05
2018-05-04T06:01:12.379Z,1013.08
2018-05-04T06:01:52.813Z,1013.07
2018-05-04T06:02:33.271Z,1013.08
2018-05-04T06:03:13.844Z,1013.09
2018-05-04T06:03:54.242Z,1013.07
2018-05-04T06:04:34.722Z,1013.1
2018-05-04T06:05:15.407Z,1013.09
2018-05-04T06:05:55.979Z,1013.09
2018-05-04T06:06:36.409Z,1013.09
2018-05-04T06:07:17.029Z,1013.08
2018-05-04T06:07:57.465Z,1013.1
2018-05-04T06:08:37.879Z,1013.13
2018-05-04T06:09:18.490Z,1013.1
2018-05-04T06:09:59.087Z,1013.15
2018-05-04T06:10:39.493Z,1013.14
2018-05-04T06:11:19.924Z,1013.16
2018-05-04T06:12:00.324Z,1013.17
2018-05-04T06:12:40.734Z,1013.18
2018-05-04T06:13:21.134Z,1013.15
2018-05-04T06:14:01.599Z,1013.16
2018-05-04T06:14:41.987Z,1013.16
2018-05-04T06:15:22.437Z,1013.12
2018-05-04T06:16:02.821Z,1013.13
2018-05-04T06:16:43.231Z,1013.12
2018-05-04T06:17:23.815Z,1013.09
2018-05-04T06:18:04.302Z,1013.12
2018-05-04T06:18:45.026Z,1013.13
2018-05-04T06:19:25.439Z,1013.12
2018-05-04T06:20:05.870Z,1013.15
2018-05-04T06:20:47.177Z,1013.14
2018-05-04T06:21:26.934Z,1013.11
2018-05-04T06:22:07.450Z,1013.11
2018-05-04T06:22:47.975Z,1013.14
2018-05-04T06:23:28.485Z,1013.13
2018-05-04T06:24:09.187Z,1013.17
2018-05-04T06:24:49.807Z,1013.14
2018-05-04T06:25:30.242Z,1013.16
2018-05-04T06:26:12.066Z,1013.17
2018-05-04T06:26:51.221Z,1013.16
2018-05-04T06:27:31.656Z,1013.16
2018-05-04T06:28:12.098Z,1013.15
2018-05-04T06:28:52.601Z,1013.18
2018-05-04T06:29:33.149Z,1013.19
2018-05-04T06:30:13.597Z,1013.19
2018-05-04T06:40:51.119Z,1013.25
2018-05-04T06:41:31.377Z,1013.25
2018-05-04T06:42:11.901Z,1013.26
2018-05-04T06:42:52.359Z,1013.25
2018-05-04T06:43:32.878Z,1013.25
2018-05-04T07:02:09.153Z,1013.19
2018-05-04T07:02:50.002Z,1013.18
2018-05-04T07:03:30.418Z,1013.17
2018-05-04T07:04:10.879Z,1013.17
2018-05-04T07:04:52.667Z,1013.17
2018-05-04T07:05:33.873Z,1013.14
2018-05-04T07:06:15.620Z,1013.14
2018-05-04T07:06:56.356Z,1013.12
2018-05-04T07:07:36.786Z,1013.14
2018-05-04T07:08:17.375Z,1013.15
2018-05-04T07:10:42.288Z,1013.16
2018-05-04T07:15:04.953Z,1013.22
2018-05-04T07:23:10.180Z,1013.23
2018-05-04T07:24:36.248Z,1013.2
2018-05-04T07:34:22.776Z,1013.09
2018-05-04T07:35:17.684Z,1013.09
2018-05-04T07:56:09.291Z,1013.07
2018-05-04T07:56:51.972Z,1013.06
2018-05-04T08:01:00.336Z,1013.08
2018-05-04T08:02:52.536Z,1013.07
2018-05-04T08:06:46.350Z,1013.15
2018-05-04T08:15:09.250Z,1013
2018-05-04T08:57:46.959Z,1013.12
2018-05-04T09:01:48.881Z,1013.11
2018-05-04T09:08:45.783Z,1013.02
2018-05-04T09:50:36.592Z,1012.9
2018-05-04T09:51:19.011Z,1012.94
2018-05-04T10:45:12.739Z,1012.5
2018-05-04T10:54:15.376Z,1012.54
2018-05-04T10:56:15.843Z,1012.54
2018-05-04T10:56:56.837Z,1012.52
2018-05-04T10:57:36.870Z,1012.48
2018-05-04T10:58:18.072Z,1012.51
2018-05-04T10:58:58.749Z,1012.5
2018-05-04T10:59:40.841Z,1012.49
2018-05-04T11:00:21.773Z,1012.51
2018-05-04T11:01:03.797Z,1012.52
2018-05-04T11:01:44.022Z,1012.5
2018-05-04T11:02:24.450Z,1012.5
2018-05-04T11:03:04.933Z,1012.51
2018-05-04T11:03:45.321Z,1012.5
2018-05-04T11:04:25.733Z,1012.47
2018-05-04T11:05:06.374Z,1012.48
2018-05-04T11:05:48.123Z,1012.45
2018-05-04T11:06:28.605Z,1012.45
2018-05-04T11:07:08.935Z,1012.47
2018-05-04T11:07:49.507Z,1012.52
2018-05-04T11:08:30.940Z,1012.49
2018-05-04T11:09:11.544Z,1012.5
2018-05-04T11:09:54.608Z,1012.49
2018-05-04T11:10:33.101Z,1012.44
2018-05-04T11:11:13.524Z,1012.47
2018-05-04T11:11:55.405Z,1012.48
2018-05-04T11:12:36.226Z,1012.44
2018-05-04T11:13:20.405Z,1012.47
2018-05-04T11:14:02.310Z,1012.44
2018-05-04T11:14:43.929Z,1012.38
2018-05-04T11:15:24.166Z,1012.44
2018-05-04T11:16:05.075Z,1012.43
2018-05-04T11:16:45.511Z,1012.42
2018-05-04T11:17:25.835Z,1012.38
2018-05-04T11:18:06.381Z,1012.44
2018-05-04T11:18:46.877Z,1012.4
2018-05-04T11:19:27.294Z,1012.4
2018-05-04T11:20:08.637Z,1012.46
2018-05-04T11:20:49.726Z,1012.42
2018-05-04T11:21:30.759Z,1012.41
2018-05-04T11:22:11.516Z,1012.43
2018-05-04T11:22:52.253Z,1012.44
2018-05-04T11:23:33.923Z,1012.42
2018-05-04T11:24:14.638Z,1012.41
2018-05-04T11:24:55.164Z,1012.41
2018-05-04T11:25:35.884Z,1012.38
2018-05-04T11:27:42.626Z,1012.38
2018-05-04T11:28:25.578Z,1012.36
2018-05-04T11:29:07.237Z,1012.34
2018-05-04T11:29:49.446Z,1012.34
2018-05-04T11:30:29.757Z,1012.31
2018-05-04T11:31:11.305Z,1012.33
2018-05-04T11:31:51.563Z,1012.36
2018-05-04T11:32:31.855Z,1012.35
2018-05-04T11:33:12.490Z,1012.35
2018-05-04T11:33:52.982Z,1012.37
2018-05-04T11:34:33.541Z,1012.37
2018-05-04T11:35:14.218Z,1012.35
2018-05-04T11:35:55.200Z,1012.33
2018-05-04T11:36:37.420Z,1012.34
2018-05-04T11:37:18.170Z,1012.32
2018-05-04T11:37:58.731Z,1012.34
2018-05-04T11:38:39.210Z,1012.3
2018-05-04T11:39:19.708Z,1012.28
2018-05-04T11:55:18.175Z,1012.35
2018-05-04T11:55:58.476Z,1012.32
2018-05-04T11:56:39.022Z,1012.38
2018-05-04T11:57:19.605Z,1012.35
2018-05-04T11:58:00.088Z,1012.31
2018-05-04T11:58:40.456Z,1012.3
2018-05-04T11:59:20.976Z,1012.3
2018-05-04T12:00:04.250Z,1012.36
2018-05-04T12:00:44.667Z,1012.31
2018-05-04T12:01:25.077Z,1012.32
2018-05-04T12:02:05.387Z,1012.34
2018-05-04T12:02:46.419Z,1012.33
2018-05-04T12:03:35.834Z,1012.34
2018-05-04T12:04:21.814Z,1012.36
2018-05-04T12:05:02.123Z,1012.39
2018-05-04T12:05:42.629Z,1012.37
2018-05-04T12:06:22.942Z,1012.36
2018-05-04T12:07:03.437Z,1012.35
2018-05-04T12:07:46.360Z,1012.33
2018-05-04T12:08:26.571Z,1012.36
2018-05-04T12:09:07.321Z,1012.32
2018-05-04T12:09:49.208Z,1012.28
2018-05-04T12:10:29.588Z,1012.37
2018-05-04T12:11:11.751Z,1012.36
2018-05-04T12:11:54.031Z,1012.35
2018-05-04T12:12:37.674Z,1012.31
2018-05-04T13:00:07.969Z,1012.24
2018-05-04T13:00:47.364Z,1012.34
2018-05-04T13:01:27.876Z,1012.29
2018-05-04T13:02:08.282Z,1012.29
2018-05-04T13:02:48.704Z,1012.3
2018-05-04T13:03:29.130Z,1012.27
2018-05-04T13:04:09.731Z,1012.25
2018-05-04T13:04:50.028Z,1012.26
2018-05-04T13:05:30.483Z,1012.26
2018-05-04T13:06:10.873Z,1012.25
2018-05-04T13:06:51.298Z,1012.21
2018-05-04T13:07:31.805Z,1012.23
2018-05-04T13:08:12.565Z,1012.26
2018-05-04T13:08:53.156Z,1012.25
2018-05-04T13:09:33.574Z,1012.28
2018-05-04T13:10:15.624Z,1012.25
2018-05-04T13:10:56.116Z,1012.26
2018-05-04T13:11:36.695Z,1012.31
2018-05-04T13:12:17.933Z,1012.3
2018-05-04T13:12:58.348Z,1012.25
2018-05-04T13:13:39.548Z,1012.32
2018-05-04T13:14:20.034Z,1012.31
2018-05-04T13:15:00.503Z,1012.23
2018-05-04T13:15:41.082Z,1012.25
2018-05-04T13:16:21.983Z,1012.23
2018-05-04T13:17:02.386Z,1012.23
2018-05-04T13:17:42.791Z,1012.18
2018-05-04T13:18:23.268Z,1012.23
2018-05-04T13:19:03.863Z,1012.24
2018-05-04T13:19:44.230Z,1012.22
2018-05-04T13:20:24.658Z,1012.18
2018-05-04T13:21:05.562Z,1012.22
2018-05-04T13:21:46.152Z,1012.21
2018-05-04T13:22:26.515Z,1012.18
2018-05-04T13:23:07.059Z,1012.2
2018-05-04T13:23:47.458Z,1012.21
2018-05-04T13:24:27.951Z,1012.18
2018-05-04T13:25:09.032Z,1012.15
2018-05-04T13:25:49.673Z,1012.2
2018-05-04T13:26:30.101Z,1012.21
2018-05-04T13:27:10.712Z,1012.14
2018-05-04T13:27:52.354Z,1012.21
2018-05-04T13:28:33.568Z,1012.11
2018-05-04T13:29:13.776Z,1012.16
2018-05-04T13:29:54.884Z,1012.15
2018-05-04T13:30:35.978Z,1012.12
2018-05-04T13:31:16.281Z,1012.12
2018-05-04T13:31:56.825Z,1012.11
2018-05-04T13:32:37.443Z,1012.13
2018-05-04T13:33:17.784Z,1012.06
2018-05-04T13:33:58.332Z,1012.09
2018-05-04T13:34:38.732Z,1012.09
2018-05-04T13:35:19.132Z,1012.06
2018-05-04T13:35:59.802Z,1012.05
2018-05-04T13:36:40.276Z,1012.09
2018-05-04T13:37:21.047Z,1012.09
2018-05-04T13:38:01.603Z,1012.12
2018-05-04T13:38:42.119Z,1012.09
2018-05-04T13:39:22.789Z,1012.16
2018-05-04T13:40:03.170Z,1012.11
2018-05-04T13:40:43.632Z,1012.15
2018-05-04T13:41:24.024Z,1012.15
2018-05-04T13:42:04.435Z,1012.09
2018-05-04T13:42:45.136Z,1012.05
2018-05-04T13:43:25.480Z,1012.09
2018-05-04T13:44:05.889Z,1012.08
2018-05-04T13:44:46.425Z,1012.08
2018-05-04T13:45:27.016Z,1012.01
2018-05-04T13:46:07.978Z,1012.03
2018-05-04T13:46:48.731Z,1011.99
2018-05-04T13:47:29.152Z,1011.98
2018-05-04T13:48:10.041Z,1011.97
2018-05-04T13:48:50.518Z,1012.03
2018-05-04T13:49:30.962Z,1012.07
2018-05-04T13:50:11.661Z,1012.05
2018-05-04T13:50:52.164Z,1012.05
2018-05-04T13:51:32.479Z,1012.02
2018-05-04T13:52:13.433Z,1011.97
2018-05-04T13:52:53.846Z,1012.01
2018-05-04T13:53:34.765Z,1011.97
2018-05-04T13:54:15.334Z,1011.99
2018-05-04T13:54:56.692Z,1012.04
2018-05-04T13:55:36.782Z,1011.93
2018-05-04T13:56:17.244Z,1011.97
2018-05-04T13:56:57.883Z,1011.97
2018-05-04T13:57:38.749Z,1012.01
2018-05-04T13:58:19.294Z,1011.97
2018-05-04T13:58:59.627Z,1012.02
2018-05-04T13:59:40.037Z,1012.07
2018-05-04T14:00:20.745Z,1012.03
2018-05-04T14:01:01.846Z,1012.01
2018-05-04T14:01:42.187Z,1011.99
2018-05-04T14:02:22.628Z,1012.05
2018-05-04T14:03:03.138Z,1012.02
2018-05-04T14:03:43.786Z,1011.97
2018-05-04T14:04:25.899Z,1012
2018-05-04T14:05:06.723Z,1011.99
2018-05-04T14:05:47.388Z,1011.97
2018-05-04T14:06:27.784Z,1011.95
2018-05-04T14:07:08.499Z,1011.92
2018-05-04T14:07:48.851Z,1011.96
2018-05-04T14:08:30.016Z,1011.93
2018-05-04T14:09:11.084Z,1011.91
2018-05-04T14:09:52.670Z,1011.9
2018-05-04T14:10:33.111Z,1011.94
2018-05-04T14:11:13.810Z,1011.92
2018-05-04T14:11:54.676Z,1011.9
2018-05-04T14:12:35.203Z,1011.95
2018-05-04T14:13:15.676Z,1011.86
2018-05-04T14:13:56.492Z,1011.91
2018-05-04T14:14:36.889Z,1011.92
2018-05-04T14:15:17.613Z,1011.9
2018-05-04T14:15:58.013Z,1011.92
2018-05-04T14:16:39.457Z,1011.95
2018-05-04T14:17:19.837Z,1011.91
2018-05-04T14:18:00.247Z,1011.9
2018-05-04T14:18:41.160Z,1011.86
2018-05-04T14:19:21.706Z,1011.91
2018-05-04T14:20:02.412Z,1011.93
2018-05-04T14:20:43.101Z,1011.83
2018-05-04T14:36:05.011Z,1011.83
2018-05-04T14:36:45.699Z,1011.81
2018-05-04T14:37:26.938Z,1011.82
2018-05-04T14:38:07.470Z,1011.8
2018-05-04T14:38:47.965Z,1011.82
2018-05-04T14:39:28.458Z,1011.78
2018-05-04T14:40:09.235Z,1011.77
2018-05-04T14:40:49.675Z,1011.82
2018-05-04T14:41:30.515Z,1011.86
2018-05-04T14:42:11.498Z,1011.86
2018-05-04T14:42:51.959Z,1011.9
2018-05-04T14:43:32.852Z,1011.83
2018-05-04T14:44:13.744Z,1011.93
2018-05-04T14:44:54.396Z,1011.85
2018-05-04T14:45:35.009Z,1011.89
2018-05-04T14:46:15.651Z,1011.95
2018-05-04T14:46:56.602Z,1011.89
2018-05-04T14:47:37.262Z,1011.88
2018-05-04T14:48:17.732Z,1011.87
2018-05-04T14:49:00.155Z,1011.89
2018-05-04T14:49:41.152Z,1011.93
2018-05-04T14:50:21.700Z,1011.81
2018-05-04T14:51:03.206Z,1011.78
2018-05-04T14:51:43.286Z,1011.85
2018-05-04T14:52:23.893Z,1011.82
2018-05-04T14:53:04.312Z,1011.87
2018-05-04T14:53:44.799Z,1011.86
2018-05-04T14:54:25.254Z,1011.94
2018-05-04T14:55:05.923Z,1011.96
2018-05-04T14:55:46.453Z,1011.88
2018-05-04T14:56:26.953Z,1011.85
2018-05-04T14:57:07.458Z,1011.94
2018-05-04T14:57:47.882Z,1011.87
2018-05-04T14:58:28.244Z,1011.94
2018-05-04T14:59:08.784Z,1011.93
2018-05-04T15:04:40.110Z,1011.85
2018-05-04T15:05:20.335Z,1011.88
2018-05-04T15:06:00.826Z,1011.89
2018-05-04T15:06:41.318Z,1011.84
2018-05-04T15:07:22.247Z,1011.83
2018-05-04T15:08:02.800Z,1011.8
2018-05-04T15:08:43.965Z,1011.87
2018-05-04T15:09:27.155Z,1011.83
2018-05-04T15:10:07.695Z,1011.83
2018-05-04T15:10:48.473Z,1011.8
2018-05-04T15:11:29.654Z,1011.84
2018-05-04T15:12:10.217Z,1011.86
2018-05-04T15:12:50.902Z,1011.88
2018-05-04T15:13:31.339Z,1011.87
2018-05-04T15:14:12.012Z,1011.91
2018-05-04T15:14:52.511Z,1011.81
2018-05-04T15:15:33.065Z,1011.88
2018-05-04T15:16:13.593Z,1011.88
2018-05-04T15:28:21.372Z,1011.72